Time;durP1;ratioP1;P1;durP2;ratioP2;P2;SDS_P1;SDS_P2;PMS_P1;PMS_P2;Temp;Humidity;BMP_temperature;BMP_pressure;BME280_temperature;BME280_humidity;BME280_pressure;Samples;Min_cycle;Max_cycle;Signal;HPM_P1;HPM_P2
2024/01/08 00:00:28;;;;;;;;;;;;;;;;;;5018213;28;19929;-85
2024/01/08 00:02:54;;;;;;;;;;;;;;;;;;5017500;28;19928;-85
2024/01/08 00:05:20;;;;;;;;;;;;;;;;;;5024594;28;19924;-85
2024/01/08 00:07:46;;;;;;;;;;;;;;;;;;5033148;28;19933;-84
2024/01/08 00:10:12;;;;;;;;;;;;;;;;;;5040214;28;19964;-84
2024/01/08 00:12:38;;;;;;;;;;;;;;;;;;5046691;28;20444;-85
2024/01/08 00:15:04;;;;;;;;;;;;;;;;;;5027261;28;20288;-85
2024/01/08 00:17:30;;;;;;;;;;;;;;;;;;5037588;28;19925;-85
2024/01/08 00:19:56;;;;;;;;;;;;;;;;;;5027066;28;19924;-84
2024/01/08 00:22:22;;;;;;;;;;;;;;;;;;5050047;28;19928;-85
2024/01/08 00:24:47;;;;;;;;;;;;;;;;;;5043891;28;19931;-84
2024/01/08 00:27:13;;;;;;;;;;;;;;;;;;5032802;28;20347;-84
2024/01/08 00:29:39;;;;;;;;;;;;;;;;;;5034019;28;20282;-85
2024/01/08 00:32:05;;;;;;;;;;;;;;;;;;5037833;28;19936;-85
2024/01/08 00:34:31;;;;;;;;;;;;;;;;;;5041618;28;19928;-84
2024/01/08 00:36:57;;;;;;;;;;;;;;;;;;5054779;28;19933;-85
2024/01/08 00:39:24;;;;;;;;;;;;;;;;;;5028954;28;19932;-85
2024/01/08 00:41:50;;;;;;;;;;;;;;;;;;5030692;28;19931;-84
2024/01/08 00:44:17;;;;;;;;;;;;;;;;;;5021223;28;19932;-85
2024/01/08 00:46:43;;;;;;;;;;;;;;;;;;5052713;28;19947;-85
2024/01/08 00:49:09;;;;;;;;;;;;;;;;;;5039551;28;20377;-85
2024/01/08 00:51:34;;;;;;;;;;;;;;;;;;5050689;28;19992;-84
2024/01/08 00:54:00;;;;;;;;;;;;;;;;;;5020865;28;19972;-84
2024/01/08 00:56:26;;;;;;;;;;;;;;;;;;5039799;28;19925;-85
2024/01/08 00:58:52;;;;;;;;;;;;;;;;;;5056708;28;19931;-84
2024/01/08 01:01:19;;;;;;;;;;;;;;;;;;5044233;28;20404;-84
2024/01/08 01:03:45;;;;;;;;;;;;;;;;;;5037638;28;20374;-84
2024/01/08 01:06:10;;;;;;;;;;;;;;;;;;5035830;28;19978;-85
2024/01/08 01:08:36;;;;;;;;;;;;;;;;;;5056149;28;19956;-84
2024/01/08 01:11:02;;;;;;;;;;;;;;;;;;5053019;28;20293;-85
2024/01/08 01:13:28;;;;;;;;;;;;;;;;;;5039213;28;19929;-85
2024/01/08 01:15:54;;;;;;;;;;;;;;;;;;5037339;28;20423;-84
2024/01/08 01:18:20;;;;;;;;;;;;;;;;;;5057143;28;19946;-85
2024/01/08 01:20:46;;;;;;;;;;;;;;;;;;5048224;28;19924;-84
2024/01/08 01:23:12;;;;;;;;;;;;;;;;;;5031931;28;19931;-86
2024/01/08 01:25:38;;;;;;;;;;;;;;;;;;5026493;28;19928;-85
2024/01/08 01:28:04;;;;;;;;;;;;;;;;;;5019237;28;20018;-85
2024/01/08 01:30:30;;;;;;;;;;;;;;;;;;5025095;28;19931;-85
2024/01/08 01:32:56;;;;;;;;;;;;;;;;;;5034985;28;19974;-84
2024/01/08 01:35:22;;;;;;;;;;;;;;;;;;5030046;28;19924;-86
2024/01/08 01:37:48;;;;;;;;;;;;;;;;;;5055844;28;20007;-84
2024/01/08 01:40:14;;;;;;;;;;;;;;;;;;5055627;28;19939;-85
2024/01/08 01:42:40;;;;;;;;;;;;;;;;;;5036124;28;20007;-85
2024/01/08 01:45:06;;;;;;;;;;;;;;;;;;5045599;28;19924;-84
2024/01/08 01:47:32;;;;;;;;;;;;;;;;;;5040376;28;19934;-85
2024/01/08 01:49:58;;;;;;;;;;;;;;;;;;5039730;28;19925;-84
2024/01/08 01:52:24;;;;;;;;;;;;;;;;;;5053222;28;19982;-84
2024/01/08 01:54:50;;;;;;;;;;;;;;;;;;5040240;28;19924;-85
2024/01/08 01:57:16;;;;;;;;;;;;;;;;;;5027704;28;19936;-84
2024/01/08 01:59:42;;;;;;;;;;;;;;;;;;5057082;28;19950;-85
2024/01/08 02:02:09;;;;;;;;;;;;;;;;;;5025884;28;19995;-84
2024/01/08 02:04:35;;;;;;;;;;;;;;;;;;5020337;28;19925;-84
2024/01/08 02:07:01;;;;;;;;;;;;;;;;;;5048821;28;20011;-84
2024/01/08 02:09:28;;;;;;;;;;;;;;;;;;5056843;28;20273;-85
2024/01/08 02:11:54;;;;;;;;;;;;;;;;;;5037560;28;19931;-84
2024/01/08 02:14:20;;;;;;;;;;;;;;;;;;5038963;28;19932;-84
2024/01/08 02:16:46;;;;;;;;;;;;;;;;;;5056611;28;19924;-85
2024/01/08 02:19:18;;;;;;;;;;;;;;;;;;5040287;28;19931;-85
2024/01/08 02:21:44;;;;;;;;;;;;;;;;;;5029587;28;20001;-85
2024/01/08 02:24:10;;;;;;;;;;;;;;;;;;5019183;28;19932;-84
2024/01/08 02:26:36;;;;;;;;;;;;;;;;;;5019665;28;20470;-84
2024/01/08 02:29:02;;;;;;;;;;;;;;;;;;5018995;28;20012;-84
2024/01/08 02:31:28;;;;;;;;;;;;;;;;;;5035774;28;20364;-85
2024/01/08 02:33:54;;;;;;;;;;;;;;;;;;5035506;28;19925;-84
2024/01/08 02:36:20;;;;;;;;;;;;;;;;;;5035143;28;19924;-85
2024/01/08 02:38:46;;;;;;;;;;;;;;;;;;5035350;28;19983;-85
2024/01/08 02:41:12;;;;;;;;;;;;;;;;;;5035519;28;20386;-84
2024/01/08 02:43:38;;;;;;;;;;;;;;;;;;5018475;28;19929;-85
2024/01/08 02:46:04;;;;;;;;;;;;;;;;;;5015894;28;19980;-84
2024/01/08 02:48:30;;;;;;;;;;;;;;;;;;5032741;28;20419;-84
2024/01/08 02:50:56;;;;;;;;;;;;;;;;;;5015466;28;19925;-84
2024/01/08 02:53:22;;;;;;;;;;;;;;;;;;5015322;28;19931;-84
2024/01/08 02:55:49;;;;;;;;;;;;;;;;;;5015678;28;19925;-84
2024/01/08 02:58:15;;;;;;;;;;;;;;;;;;5015504;28;20367;-84
2024/01/08 03:00:41;;;;;;;;;;;;;;;;;;5016073;28;19983;-84
2024/01/08 03:03:07;;;;;;;;;;;;;;;;;;5015275;28;19925;-84
2024/01/08 03:05:33;;;;;;;;;;;;;;;;;;5015610;28;19925;-84
2024/01/08 03:07:59;;;;;;;;;;;;;;;;;;5026406;28;19932;-84
2024/01/08 03:10:25;;;;;;;;;;;;;;;;;;5034767;28;20159;-84
2024/01/08 03:12:54;;;;;;;;;;;;;;;;;;5034484;28;19925;-83
2024/01/08 03:15:20;;;;;;;;;;;;;;;;;;5035372;28;19925;-84
2024/01/08 03:17:46;;;;;;;;;;;;;;;;;;5029464;28;20255;-84
2024/01/08 03:20:12;;;;;;;;;;;;;;;;;;5031354;28;19925;-84
2024/01/08 03:22:39;;;;;;;;;;;;;;;;;;5015121;28;19925;-84
2024/01/08 03:25:06;;;;;;;;;;;;;;;;;;5015273;28;19948;-84
2024/01/08 03:27:32;;;;;;;;;;;;;;;;;;5014400;28;19931;-84
2024/01/08 03:29:58;;;;;;;;;;;;;;;;;;5015183;28;19929;-84
2024/01/08 03:32:24;;;;;;;;;;;;;;;;;;5032154;28;20008;-84
2024/01/08 03:34:50;;;;;;;;;;;;;;;;;;5015351;28;19933;-84
2024/01/08 03:37:16;;;;;;;;;;;;;;;;;;5047402;28;20386;-84
2024/01/08 03:39:42;;;;;;;;;;;;;;;;;;5009397;28;19932;-84
2024/01/08 03:42:08;;;;;;;;;;;;;;;;;;5004541;28;19926;-84
2024/01/08 03:44:34;;;;;;;;;;;;;;;;;;4991916;28;20363;-84
2024/01/08 03:47:00;;;;;;;;;;;;;;;;;;4996304;28;19933;-84
2024/01/08 03:49:26;;;;;;;;;;;;;;;;;;4997807;28;20376;-84
2024/01/08 03:51:52;;;;;;;;;;;;;;;;;;4990348;28;19925;-84
2024/01/08 03:54:18;;;;;;;;;;;;;;;;;;4978596;28;20024;-84
2024/01/08 03:56:44;;;;;;;;;;;;;;;;;;4986212;28;19973;-84
2024/01/08 03:59:10;;;;;;;;;;;;;;;;;;4993819;28;19984;-83
2024/01/08 04:01:36;;;;;;;;;;;;;;;;;;4988333;28;20383;-84
2024/01/08 04:04:02;;;;;;;;;;;;;;;;;;4986581;28;19987;-84
2024/01/08 04:06:28;;;;;;;;;;;;;;;;;;5014303;28;19944;-84
2024/01/08 04:08:54;;;;;;;;;;;;;;;;;;5024507;28;19925;-84
2024/01/08 04:11:20;;;;;;;;;;;;;;;;;;5013687;28;20022;-84
2024/01/08 04:13:47;;;;;;;;;;;;;;;;;;4997372;28;19976;-84
2024/01/08 04:16:13;;;;;;;;;;;;;;;;;;4998187;28;19929;-84
2024/01/08 04:18:39;;;;;;;;;;;;;;;;;;4998362;28;19937;-84
2024/01/08 04:21:05;;;;;;;;;;;;;;;;;;5014267;28;19929;-84
2024/01/08 04:23:32;;;;;;;;;;;;;;;;;;4997730;28;19925;-84
2024/01/08 04:25:59;;;;;;;;;;;;;;;;;;5005554;28;19929;-84
2024/01/08 04:28:24;;;;;;;;;;;;;;;;;;5029925;28;19963;-84
2024/01/08 04:30:50;;;;;;;;;;;;;;;;;;5014518;28;20386;-84
2024/01/08 04:33:16;;;;;;;;;;;;;;;;;;5015463;28;19929;-84
2024/01/08 04:35:42;;;;;;;;;;;;;;;;;;5017948;28;19924;-84
2024/01/08 04:38:08;;;;;;;;;;;;;;;;;;5037516;28;19931;-84
2024/01/08 04:40:34;;;;;;;;;;;;;;;;;;5033970;28;20035;-84
2024/01/08 04:43:00;;;;;;;;;;;;;;;;;;5045956;28;20387;-84
2024/01/08 04:45:26;;;;;;;;;;;;;;;;;;5042057;28;19925;-84
2024/01/08 04:47:52;;;;;;;;;;;;;;;;;;5037226;28;19931;-84
2024/01/08 04:50:18;;;;;;;;;;;;;;;;;;5028901;28;19982;-83
2024/01/08 04:52:44;;;;;;;;;;;;;;;;;;5033795;28;19932;-83
2024/01/08 04:55:10;;;;;;;;;;;;;;;;;;5017601;28;19951;-84
2024/01/08 04:57:36;;;;;;;;;;;;;;;;;;5032832;28;19925;-84
2024/01/08 05:00:03;;;;;;;;;;;;;;;;;;5017971;28;19925;-84
2024/01/08 05:02:29;;;;;;;;;;;;;;;;;;5033784;28;19933;-85
2024/01/08 05:04:55;;;;;;;;;;;;;;;;;;5021692;28;19982;-84
2024/01/08 05:07:21;;;;;;;;;;;;;;;;;;5035301;28;20006;-83
2024/01/08 05:09:47;;;;;;;;;;;;;;;;;;5023806;28;19974;-84
2024/01/08 05:12:13;;;;;;;;;;;;;;;;;;5053018;28;19925;-84
2024/01/08 05:14:39;;;;;;;;;;;;;;;;;;5036972;28;19924;-84
2024/01/08 05:17:05;;;;;;;;;;;;;;;;;;5057094;28;19925;-84
2024/01/08 05:19:31;;;;;;;;;;;;;;;;;;5040796;28;19924;-84
2024/01/08 05:21:57;;;;;;;;;;;;;;;;;;5040483;28;19963;-84
2024/01/08 05:24:23;;;;;;;;;;;;;;;;;;5039944;28;19925;-84
2024/01/08 05:26:49;;;;;;;;;;;;;;;;;;5057474;28;19929;-84
2024/01/08 05:29:15;;;;;;;;;;;;;;;;;;5036028;28;19925;-84
2024/01/08 05:31:41;;;;;;;;;;;;;;;;;;5040007;28;19982;-84
2024/01/08 05:34:07;;;;;;;;;;;;;;;;;;5040931;28;19924;-84
2024/01/08 05:36:33;;;;;;;;;;;;;;;;;;5039748;28;19933;-85
2024/01/08 05:38:59;;;;;;;;;;;;;;;;;;5040144;28;19975;-84
2024/01/08 05:41:25;;;;;;;;;;;;;;;;;;5035857;28;19932;-85
2024/01/08 05:43:51;;;;;;;;;;;;;;;;;;5036575;28;19925;-84
2024/01/08 05:46:17;;;;;;;;;;;;;;;;;;5030862;28;20385;-84
2024/01/08 05:48:43;;;;;;;;;;;;;;;;;;5039773;28;19980;-84
2024/01/08 05:51:09;;;;;;;;;;;;;;;;;;5039423;28;19928;-84
2024/01/08 05:53:35;;;;;;;;;;;;;;;;;;5037850;28;20011;-84
2024/01/08 05:56:01;;;;;;;;;;;;;;;;;;5056865;28;20315;-85
2024/01/08 05:58:27;;;;;;;;;;;;;;;;;;5024034;28;19925;-83
2024/01/08 06:00:53;;;;;;;;;;;;;;;;;;5020599;28;19978;-85
2024/01/08 06:03:19;;;;;;;;;;;;;;;;;;5020213;28;19967;-84
2024/01/08 06:05:45;;;;;;;;;;;;;;;;;;5049399;28;19972;-84
2024/01/08 06:08:11;;;;;;;;;;;;;;;;;;5039572;28;19928;-84
2024/01/08 06:10:38;;;;;;;;;;;;;;;;;;5039262;28;19925;-85
2024/01/08 06:13:04;;;;;;;;;;;;;;;;;;5039475;28;20018;-84
2024/01/08 06:15:30;;;;;;;;;;;;;;;;;;5056171;28;20012;-84
2024/01/08 06:17:56;;;;;;;;;;;;;;;;;;5037686;28;19982;-85
2024/01/08 06:20:22;;;;;;;;;;;;;;;;;;5040040;28;19956;-84
2024/01/08 06:22:48;;;;;;;;;;;;;;;;;;5054248;28;19928;-85
2024/01/08 06:25:13;;;;;;;;;;;;;;;;;;5039629;28;20042;-84
2024/01/08 06:27:39;;;;;;;;;;;;;;;;;;5038113;28;19931;-85
2024/01/08 06:30:05;;;;;;;;;;;;;;;;;;5036111;28;19925;-84
2024/01/08 06:32:31;;;;;;;;;;;;;;;;;;5036020;28;19932;-84
2024/01/08 06:34:57;;;;;;;;;;;;;;;;;;5019557;28;19932;-84
2024/01/08 06:37:23;;;;;;;;;;;;;;;;;;5035920;28;19928;-84
2024/01/08 06:39:49;;;;;;;;;;;;;;;;;;5020193;28;20366;-85
2024/01/08 06:42:15;;;;;;;;;;;;;;;;;;5018855;28;19924;-85
2024/01/08 06:44:41;;;;;;;;;;;;;;;;;;5035419;28;20457;-84
2024/01/08 06:47:07;;;;;;;;;;;;;;;;;;5035932;28;19928;-84
2024/01/08 06:49:35;;;;;;;;;;;;;;;;;;5035935;28;19924;-84
2024/01/08 06:52:01;;;;;;;;;;;;;;;;;;5035240;28;19925;-84
2024/01/08 06:54:27;;;;;;;;;;;;;;;;;;5035307;28;19944;-84
2024/01/08 06:56:52;;;;;;;;;;;;;;;;;;5034674;28;19931;-85
2024/01/08 06:59:18;;;;;;;;;;;;;;;;;;5034032;28;19929;-85
2024/01/08 07:01:44;;;;;;;;;;;;;;;;;;5035280;28;19956;-84
2024/01/08 07:04:10;;;;;;;;;;;;;;;;;;5035642;28;19925;-84
2024/01/08 07:06:36;;;;;;;;;;;;;;;;;;5019117;28;20027;-84
2024/01/08 07:09:02;;;;;;;;;;;;;;;;;;5035622;28;19925;-85
2024/01/08 07:11:28;;;;;;;;;;;;;;;;;;5001455;28;19935;-84
2024/01/08 07:13:54;;;;;;;;;;;;;;;;;;4997938;28;19925;-83
2024/01/08 07:16:20;;;;;;;;;;;;;;;;;;4999515;28;19925;-84
2024/01/08 07:18:46;;;;;;;;;;;;;;;;;;4999062;28;19986;-84
2024/01/08 07:21:16;;;;;;;;;;;;;;;;;;4998960;28;19925;-84
2024/01/08 07:23:42;;;;;;;;;;;;;;;;;;5004978;28;19935;-84
2024/01/08 07:26:08;;;;;;;;;;;;;;;;;;5013002;28;19929;-84
2024/01/08 07:28:33;;;;;;;;;;;;;;;;;;5031144;28;19924;-86
2024/01/08 07:31:03;;;;;;;;;;;;;;;;;;5034221;28;19928;-83
2024/01/08 07:33:29;;;;;;;;;;;;;;;;;;4998858;28;19975;-83
2024/01/08 07:36:15;;;;;;;;;;;;;;;;;;5022507;28;19920;-82
2024/01/08 07:38:41;;;;;;;;;;;;;;;;;;5036164;28;20370;-83
2024/01/08 07:41:07;;;;;;;;;;;;;;;;;;5054641;28;19931;-85
2024/01/08 07:43:34;;;;;;;;;;;;;;;;;;5053929;28;19925;-84
2024/01/08 07:45:59;;;;;;;;;;;;;;;;;;5037188;28;19954;-78
2024/01/08 07:48:26;;;;;;;;;;;;;;;;;;5038278;28;20292;-84
2024/01/08 07:50:52;;;;;;;;;;;;;;;;;;5023625;28;20348;-84
2024/01/08 07:53:24;;;;;;;;;;;;;;;;;;5018617;28;19974;-84
2024/01/08 07:55:50;;;;;;;;;;;;;;;;;;5033691;28;20283;-84
2024/01/08 07:58:23;;;;;;;;;;;;;;;;;;5017535;28;19929;-84
2024/01/08 08:00:56;;;;;;;;;;;;;;;;;;5051282;28;19964;-84
2024/01/08 08:03:28;;;;;;;;;;;;;;;;;;5052299;28;19978;-84
2024/01/08 08:05:58;;;;;;;;;;;;;;;;;;5034387;28;19925;-85
2024/01/08 08:08:24;;;;;;;;;;;;;;;;;;5050026;28;19925;-84
2024/01/08 08:10:50;;;;;;;;;;;;;;;;;;5031668;28;19932;-84
2024/01/08 08:13:31;;;;;;;;;;;;;;;;;;5036018;28;19932;-85
2024/01/08 08:16:07;;;;;;;;;;;;;;;;;;5034310;28;19983;-84
2024/01/08 08:18:33;;;;;;;;;;;;;;;;;;5017796;28;19931;-84
2024/01/08 08:20:59;;;;;;;;;;;;;;;;;;5022934;28;19925;-84
2024/01/08 08:23:26;;;;;;;;;;;;;;;;;;5043793;28;19948;-84
2024/01/08 08:25:52;;;;;;;;;;;;;;;;;;5033287;28;20378;-85
2024/01/08 08:28:18;;;;;;;;;;;;;;;;;;5017052;28;19931;-84
2024/01/08 08:30:50;;;;;;;;;;;;;;;;;;5017488;28;20386;-84
2024/01/08 08:33:18;;;;;;;;;;;;;;;;;;5043444;28;19935;-84
2024/01/08 08:35:45;;;;;;;;;;;;;;;;;;5017590;28;20387;-84
2024/01/08 08:38:12;;;;;;;;;;;;;;;;;;5032236;28;19925;-83
2024/01/08 08:40:47;;;;;;;;;;;;;;;;;;5051944;28;19932;-84
2024/01/08 08:43:16;;;;;;;;;;;;;;;;;;5050866;28;19933;-84
2024/01/08 08:45:42;;;;;;;;;;;;;;;;;;5034414;28;20066;-84
2024/01/08 08:48:11;;;;;;;;;;;;;;;;;;5033778;28;19982;-83
2024/01/08 08:53:22;;;;;;;;;;;;;;;;;;5008318;28;19932;-86
2024/01/08 08:55:48;;;;;;;;;;;;;;;;;;4991654;28;19926;-86
2024/01/08 08:58:14;;;;;;;;;;;;;;;;;;4972783;28;19926;-85
2024/01/08 09:00:40;;;;;;;;;;;;;;;;;;4980546;28;19926;-86
2024/01/08 09:03:06;;;;;;;;;;;;;;;;;;4996083;28;20288;-86
2024/01/08 09:05:32;;;;;;;;;;;;;;;;;;4980498;28;19925;-86
2024/01/08 09:07:58;;;;;;;;;;;;;;;;;;4966194;28;20020;-87
2024/01/08 09:10:30;;;;;;;;;;;;;;;;;;4980174;28;19933;-85
2024/01/08 09:12:56;;;;;;;;;;;;;;;;;;4977767;28;20031;-85
2024/01/08 09:15:22;;;;;;;;;;;;;;;;;;4976416;28;19993;-85
2024/01/08 09:17:49;;;;;;;;;;;;;;;;;;4989468;28;19929;-85
2024/01/08 09:20:15;;;;;;;;;;;;;;;;;;4972265;28;19929;-85
2024/01/08 09:22:41;;;;;;;;;;;;;;;;;;4994590;28;20016;-85
2024/01/08 09:25:10;;;;;;;;;;;;;;;;;;5040059;28;19928;-85
2024/01/08 09:27:47;;;;;;;;;;;;;;;;;;5037094;28;19925;-84
2024/01/08 09:30:16;;;;;;;;;;;;;;;;;;5036984;28;19998;-89
2024/01/08 09:32:42;;;;;;;;;;;;;;;;;;5037353;28;19925;-84
2024/01/08 09:35:08;;;;;;;;;;;;;;;;;;5021283;28;19924;-81
2024/01/08 09:37:34;;;;;;;;;;;;;;;;;;5046517;28;19931;-85
2024/01/08 09:40:00;;;;;;;;;;;;;;;;;;5049285;28;19982;-84
2024/01/08 09:42:26;;;;;;;;;;;;;;;;;;5054432;28;19929;-84
2024/01/08 09:44:52;;;;;;;;;;;;;;;;;;5057063;28;19931;-84
2024/01/08 09:47:19;;;;;;;;;;;;;;;;;;5043079;28;19939;-84
2024/01/08 09:49:45;;;;;;;;;;;;;;;;;;5057263;28;19925;-84
2024/01/08 09:52:11;;;;;;;;;;;;;;;;;;5037279;28;19924;-84
2024/01/08 09:54:37;;;;;;;;;;;;;;;;;;5037236;28;19967;-84
2024/01/08 09:57:03;;;;;;;;;;;;;;;;;;5020576;28;19925;-84
2024/01/08 09:59:31;;;;;;;;;;;;;;;;;;5033185;28;19947;-84
2024/01/08 10:01:57;;;;;;;;;;;;;;;;;;5036875;28;19932;-85
2024/01/08 10:04:26;;;;;;;;;;;;;;;;;;5019899;28;20298;-85
2024/01/08 10:06:54;;;;;;;;;;;;;;;;;;5035301;28;19975;-85
2024/01/08 10:09:20;;;;;;;;;;;;;;;;;;5035695;28;19921;-86
2024/01/08 10:11:46;;;;;;;;;;;;;;;;;;5032708;28;19932;-85
2024/01/08 10:14:12;;;;;;;;;;;;;;;;;;5045950;28;19969;-85
2024/01/08 10:16:38;;;;;;;;;;;;;;;;;;5025514;28;20027;-87
2024/01/08 10:19:03;;;;;;;;;;;;;;;;;;5033571;28;19931;-85
2024/01/08 10:21:29;;;;;;;;;;;;;;;;;;5047247;28;20389;-86
2024/01/08 10:23:55;;;;;;;;;;;;;;;;;;5043329;28;20282;-83
2024/01/08 10:26:26;;;;;;;;;;;;;;;;;;5054894;28;19990;-84
2024/01/08 10:28:52;;;;;;;;;;;;;;;;;;5024065;28;20563;-85
2024/01/08 10:31:18;;;;;;;;;;;;;;;;;;5035425;28;19925;-85
2024/01/08 10:33:45;;;;;;;;;;;;;;;;;;5045242;28;20300;-85
2024/01/08 10:36:11;;;;;;;;;;;;;;;;;;5031462;28;19924;-86
2024/01/08 10:38:37;;;;;;;;;;;;;;;;;;5019032;28;19925;-85
2024/01/08 10:41:03;;;;;;;;;;;;;;;;;;5047546;28;19934;-85
2024/01/08 10:43:29;;;;;;;;;;;;;;;;;;5029282;28;19929;-85
2024/01/08 10:45:56;;;;;;;;;;;;;;;;;;5031433;28;20385;-89
2024/01/08 10:48:22;;;;;;;;;;;;;;;;;;5025403;28;19967;-89
2024/01/08 10:50:48;;;;;;;;;;;;;;;;;;5030026;28;19956;-90
2024/01/08 10:53:14;;;;;;;;;;;;;;;;;;5044556;28;19932;-90
2024/01/08 10:55:40;;;;;;;;;;;;;;;;;;5045193;28;21431;-91
2024/01/08 10:58:07;;;;;;;;;;;;;;;;;;5032836;28;19925;-87
2024/01/08 11:00:33;;;;;;;;;;;;;;;;;;5030051;28;19924;-84
2024/01/08 11:02:59;;;;;;;;;;;;;;;;;;5029483;28;19929;-85
2024/01/08 11:05:31;;;;;;;;;;;;;;;;;;5029137;28;20692;-84
2024/01/08 11:08:06;;;;;;;;;;;;;;;;;;5026503;28;20362;-87
2024/01/08 11:10:32;;;;;;;;;;;;;;;;;;5045806;28;19932;-84
2024/01/08 11:12:58;;;;;;;;;;;;;;;;;;5044969;28;19925;-84
2024/01/08 11:15:24;;;;;;;;;;;;;;;;;;5029179;28;20010;-83
2024/01/08 11:17:51;;;;;;;;;;;;;;;;;;5034895;28;20084;-84
2024/01/08 11:20:18;;;;;;;;;;;;;;;;;;5019275;28;20015;-85
2024/01/08 11:22:44;;;;;;;;;;;;;;;;;;5026863;28;19924;-84
2024/01/08 11:25:10;;;;;;;;;;;;;;;;;;5023393;28;19936;-85
2024/01/08 11:27:36;;;;;;;;;;;;;;;;;;5035429;28;19948;-85
2024/01/08 11:30:02;;;;;;;;;;;;;;;;;;5041698;28;19924;-84
2024/01/08 11:32:28;;;;;;;;;;;;;;;;;;5047329;28;19929;-84
2024/01/08 11:34:59;;;;;;;;;;;;;;;;;;5043388;28;19931;-84
2024/01/08 11:37:25;;;;;;;;;;;;;;;;;;5023351;28;19938;-84
2024/01/08 11:39:57;;;;;;;;;;;;;;;;;;5027413;28;19931;-84
2024/01/08 11:42:25;;;;;;;;;;;;;;;;;;5033831;28;20132;-83
2024/01/08 11:44:52;;;;;;;;;;;;;;;;;;5053463;28;19924;-83
2024/01/08 11:47:21;;;;;;;;;;;;;;;;;;5070897;28;19929;-83
2024/01/08 11:49:53;;;;;;;;;;;;;;;;;;5054858;28;20015;-83
2024/01/08 11:52:22;;;;;;;;;;;;;;;;;;5051267;28;19994;-82
2024/01/08 11:54:49;;;;;;;;;;;;;;;;;;5037785;28;19929;-83
2024/01/08 11:57:33;;;;;;;;;;;;;;;;;;5039032;28;19924;-83
2024/01/08 12:00:05;;;;;;;;;;;;;;;;;;5053002;28;20019;-81
2024/01/08 12:02:43;;;;;;;;;;;;;;;;;;5053460;28;19974;-83
2024/01/08 12:05:09;;;;;;;;;;;;;;;;;;5023242;28;19979;-84
2024/01/08 12:07:37;;;;;;;;;;;;;;;;;;5032743;28;19978;-83
2024/01/08 12:10:08;;;;;;;;;;;;;;;;;;5027433;28;19924;-83
2024/01/08 12:18:23;;;;;;;;;;;;;;;;;;5044105;28;19924;-84
2024/01/08 12:20:52;;;;;;;;;;;;;;;;;;5045039;28;20393;-84
2024/01/08 12:23:19;;;;;;;;;;;;;;;;;;5027768;28;19950;-81
2024/01/08 12:25:45;;;;;;;;;;;;;;;;;;5046804;28;19925;-81
2024/01/08 12:28:13;;;;;;;;;;;;;;;;;;5048355;28;19931;-81
2024/01/08 12:30:39;;;;;;;;;;;;;;;;;;5033568;28;20444;-81
2024/01/08 12:33:05;;;;;;;;;;;;;;;;;;5045386;28;19925;-82
2024/01/08 12:35:38;;;;;;;;;;;;;;;;;;5027085;28;20176;-81
2024/01/08 12:38:04;;;;;;;;;;;;;;;;;;5047706;28;19924;-81
2024/01/08 12:40:31;;;;;;;;;;;;;;;;;;5029577;28;20400;-82
2024/01/08 12:42:58;;;;;;;;;;;;;;;;;;5030586;28;19974;-79
2024/01/08 12:45:24;;;;;;;;;;;;;;;;;;5008362;28;19926;-81
2024/01/08 12:47:50;;;;;;;;;;;;;;;;;;5008944;28;20003;-82
2024/01/08 12:50:16;;;;;;;;;;;;;;;;;;5015191;28;19971;-82
2024/01/08 12:52:42;;;;;;;;;;;;;;;;;;5021534;28;19925;-82
2024/01/08 12:55:08;;;;;;;;;;;;;;;;;;5015584;28;20301;-82
2024/01/08 12:57:34;;;;;;;;;;;;;;;;;;5012917;28;19925;-83
2024/01/08 13:00:00;;;;;;;;;;;;;;;;;;5012433;28;20420;-82
2024/01/08 13:02:29;;;;;;;;;;;;;;;;;;5025246;28;19965;-83
2024/01/08 13:04:58;;;;;;;;;;;;;;;;;;5029481;28;19932;-82
2024/01/08 13:07:27;;;;;;;;;;;;;;;;;;5013854;28;19925;-83
2024/01/08 13:09:53;;;;;;;;;;;;;;;;;;5033671;28;19925;-82
2024/01/08 13:12:19;;;;;;;;;;;;;;;;;;5015963;28;20023;-83
2024/01/08 13:14:52;;;;;;;;;;;;;;;;;;5009144;28;19932;-83
2024/01/08 13:17:18;;;;;;;;;;;;;;;;;;5033143;28;20382;-82
2024/01/08 13:19:51;;;;;;;;;;;;;;;;;;5007949;28;19933;-83
2024/01/08 13:22:17;;;;;;;;;;;;;;;;;;5009956;28;19932;-82
2024/01/08 13:24:43;;;;;;;;;;;;;;;;;;5007625;28;19924;-82
2024/01/08 13:27:25;;;;;;;;;;;;;;;;;;5032553;28;19940;-82
2024/01/08 13:29:53;;;;;;;;;;;;;;;;;;5014292;28;19925;-81
2024/01/08 13:32:22;;;;;;;;;;;;;;;;;;5016775;28;19932;-82
2024/01/08 13:35:03;;;;;;;;;;;;;;;;;;5035367;28;19972;-82
2024/01/08 13:37:29;;;;;;;;;;;;;;;;;;5018212;28;20014;-82
2024/01/08 13:39:55;;;;;;;;;;;;;;;;;;5026490;28;20022;-83
2024/01/08 13:42:22;;;;;;;;;;;;;;;;;;5055937;28;20489;-82
2024/01/08 13:44:54;;;;;;;;;;;;;;;;;;5057542;28;20388;-82
2024/01/08 13:47:20;;;;;;;;;;;;;;;;;;5056182;28;20362;-82
2024/01/08 13:49:46;;;;;;;;;;;;;;;;;;5039376;28;19947;-82
2024/01/08 13:52:12;;;;;;;;;;;;;;;;;;5046031;28;20382;-82
2024/01/08 13:54:38;;;;;;;;;;;;;;;;;;5036925;28;20020;-82
2024/01/08 13:57:04;;;;;;;;;;;;;;;;;;5020325;28;20351;-84
2024/01/08 13:59:30;;;;;;;;;;;;;;;;;;5035906;28;19947;-84
2024/01/08 14:01:56;;;;;;;;;;;;;;;;;;5036748;28;20362;-84
2024/01/08 14:04:23;;;;;;;;;;;;;;;;;;5028926;28;19924;-83
2024/01/08 14:06:49;;;;;;;;;;;;;;;;;;5038880;28;19935;-84
2024/01/08 14:09:16;;;;;;;;;;;;;;;;;;5055977;28;19928;-83
2024/01/08 14:11:42;;;;;;;;;;;;;;;;;;5054307;28;19972;-84
2024/01/08 14:14:08;;;;;;;;;;;;;;;;;;5037853;28;19932;-84
2024/01/08 14:16:39;;;;;;;;;;;;;;;;;;5032366;28;19935;-84
2024/01/08 14:19:05;;;;;;;;;;;;;;;;;;5050008;28;19924;-84
2024/01/08 14:21:32;;;;;;;;;;;;;;;;;;5052667;28;19931;-73
2024/01/08 14:23:58;;;;;;;;;;;;;;;;;;5052945;28;19925;-67
2024/01/08 14:26:24;;;;;;;;;;;;;;;;;;5073086;28;20293;-71
2024/01/08 14:28:50;;;;;;;;;;;;;;;;;;5071277;28;19935;-71
2024/01/08 14:31:16;;;;;;;;;;;;;;;;;;5036474;28;19975;-72
2024/01/08 14:33:42;;;;;;;;;;;;;;;;;;5068065;28;19924;-72
2024/01/08 14:36:08;;;;;;;;;;;;;;;;;;5067867;28;19925;-72
2024/01/08 14:38:34;;;;;;;;;;;;;;;;;;5052036;28;19939;-73
2024/01/08 14:41:00;;;;;;;;;;;;;;;;;;5050316;28;20014;-73
2024/01/08 14:43:26;;;;;;;;;;;;;;;;;;5068099;28;19924;-72
2024/01/08 14:45:52;;;;;;;;;;;;;;;;;;5037532;28;20384;-72
2024/01/08 14:48:18;;;;;;;;;;;;;;;;;;5054912;28;19985;-72
2024/01/08 14:50:44;;;;;;;;;;;;;;;;;;5071352;28;20028;-72
2024/01/08 14:53:10;;;;;;;;;;;;;;;;;;5066850;28;19932;-72
2024/01/08 14:55:36;;;;;;;;;;;;;;;;;;5051563;28;19924;-82
2024/01/08 14:58:02;;;;;;;;;;;;;;;;;;5034236;28;19928;-82
2024/01/08 15:00:28;;;;;;;;;;;;;;;;;;5035586;28;20008;-82
2024/01/08 15:02:54;;;;;;;;;;;;;;;;;;5035629;28;19921;-83
2024/01/08 15:05:23;;;;;;;;;;;;;;;;;;5054937;28;19928;-83
2024/01/08 15:07:49;;;;;;;;;;;;;;;;;;5050742;28;20453;-82
2024/01/08 15:10:15;;;;;;;;;;;;;;;;;;5033979;28;20018;-83
2024/01/08 15:12:41;;;;;;;;;;;;;;;;;;5044657;28;20388;-84
2024/01/08 15:15:09;;;;;;;;;;;;;;;;;;5030930;28;19932;-83
2024/01/08 15:17:35;;;;;;;;;;;;;;;;;;5029941;28;19932;-83
2024/01/08 15:20:01;;;;;;;;;;;;;;;;;;5036852;28;19933;-82
2024/01/08 15:22:27;;;;;;;;;;;;;;;;;;5050226;28;20378;-82
2024/01/08 15:24:55;;;;;;;;;;;;;;;;;;5037047;28;20286;-82
2024/01/08 15:27:22;;;;;;;;;;;;;;;;;;5036820;28;19932;-82
2024/01/08 15:29:48;;;;;;;;;;;;;;;;;;5050021;28;20520;-82
2024/01/08 15:32:16;;;;;;;;;;;;;;;;;;5029033;28;19928;-87
2024/01/08 15:34:42;;;;;;;;;;;;;;;;;;5044211;28;20405;-80
2024/01/08 15:37:08;;;;;;;;;;;;;;;;;;5026440;28;19924;-81
2024/01/08 15:39:34;;;;;;;;;;;;;;;;;;5023209;28;20042;-80
2024/01/08 15:42:00;;;;;;;;;;;;;;;;;;5026709;28;19925;-81
2024/01/08 15:44:26;;;;;;;;;;;;;;;;;;5042582;28;19929;-81
2024/01/08 15:46:52;;;;;;;;;;;;;;;;;;5025484;28;19970;-79
2024/01/08 15:49:18;;;;;;;;;;;;;;;;;;5031861;28;20010;-81
2024/01/08 15:51:44;;;;;;;;;;;;;;;;;;5022346;28;19931;-83
2024/01/08 15:54:10;;;;;;;;;;;;;;;;;;5041363;28;19925;-82
2024/01/08 15:56:44;;;;;;;;;;;;;;;;;;5042047;28;19931;-83
2024/01/08 15:59:15;;;;;;;;;;;;;;;;;;5058598;28;19977;-82
2024/01/08 16:01:41;;;;;;;;;;;;;;;;;;5045917;28;20323;-81
2024/01/08 16:04:07;;;;;;;;;;;;;;;;;;5037558;28;20007;-83
2024/01/08 16:06:33;;;;;;;;;;;;;;;;;;5025297;28;19925;-83
2024/01/08 16:08:59;;;;;;;;;;;;;;;;;;5035869;28;19928;-83
2024/01/08 16:11:25;;;;;;;;;;;;;;;;;;5027677;28;19954;-84
2024/01/08 16:13:52;;;;;;;;;;;;;;;;;;5034908;28;19924;-84
2024/01/08 16:16:18;;;;;;;;;;;;;;;;;;5054205;28;19928;-84
2024/01/08 16:18:44;;;;;;;;;;;;;;;;;;5034200;28;20122;-84
2024/01/08 16:21:10;;;;;;;;;;;;;;;;;;5027029;28;20011;-83
2024/01/08 16:23:35;;;;;;;;;;;;;;;;;;5030914;28;19932;-83
2024/01/08 16:26:02;;;;;;;;;;;;;;;;;;5043863;28;19967;-84
2024/01/08 16:28:28;;;;;;;;;;;;;;;;;;5032667;28;19925;-83
2024/01/08 16:30:54;;;;;;;;;;;;;;;;;;5049387;28;19951;-82
2024/01/08 16:33:29;;;;;;;;;;;;;;;;;;5044885;28;20063;-83
2024/01/08 16:35:58;;;;;;;;;;;;;;;;;;5049738;28;19931;-84
2024/01/08 16:38:43;;;;;;;;;;;;;;;;;;5053019;28;19920;-82
2024/01/08 16:41:09;;;;;;;;;;;;;;;;;;5035485;28;19928;-81
2024/01/08 16:43:35;;;;;;;;;;;;;;;;;;5052028;28;20281;-82
2024/01/08 16:46:04;;;;;;;;;;;;;;;;;;5040082;28;20465;-82
2024/01/08 16:48:30;;;;;;;;;;;;;;;;;;5052738;28;19925;-82
2024/01/08 16:50:56;;;;;;;;;;;;;;;;;;5040852;28;19929;-82